createdAt,value
2019-05-11T00:00:07.357Z,434.0000
2019-05-11T00:00:18.373Z,438.0000
2019-05-11T00:00:27.378Z,440.0000
2019-05-11T00:00:38.378Z,429.0000
2019-05-11T00:00:47.368Z,432.0000
2019-05-11T00:00:58.404Z,433.0000
2019-05-11T00:01:07.388Z,442.0000
2019-05-11T00:01:18.368Z,442.0000
2019-05-11T00:01:27.369Z,426.0000
2019-05-11T00:01:38.418Z,436.0000
2019-05-11T00:01:47.375Z,440.0000
2019-05-11T00:01:58.358Z,425.0000
2019-05-11T00:02:07.374Z,424.0000
2019-05-11T00:02:18.378Z,432.0000
2019-05-11T00:02:27.401Z,421.0000
2019-05-11T00:02:38.369Z,423.0000
2019-05-11T00:02:47.383Z,426.0000
2019-05-11T00:02:58.409Z,436.0000
2019-05-11T00:03:08.229Z,426.0000
2019-05-11T00:03:18.463Z,429.0000
2019-05-11T00:03:27.369Z,431.0000
2019-05-11T00:03:38.371Z,425.0000
2019-05-11T00:03:50.355Z,425.0000
2019-05-11T00:03:58.381Z,420.0000
2019-05-11T00:04:09.381Z,432.0000
2019-05-11T00:04:17.396Z,429.0000
2019-05-11T00:04:28.382Z,420.0000
2019-05-11T00:04:37.354Z,412.0000
2019-05-11T00:04:48.390Z,406.0000
2019-05-11T00:04:57.383Z,415.0000
2019-05-11T00:05:08.361Z,421.0000
2019-05-11T00:05:17.386Z,420.0000
2019-05-11T00:05:28.390Z,415.0000
2019-05-11T00:05:37.355Z,410.0000
2019-05-11T00:05:48.392Z,414.0000
2019-05-11T00:05:57.371Z,413.0000
2019-05-11T00:06:08.385Z,406.0000
2019-05-11T00:06:17.390Z,426.0000
2019-05-11T00:06:28.370Z,415.0000
2019-05-11T00:06:37.443Z,422.0000
2019-05-11T00:06:48.370Z,409.0000
2019-05-11T00:06:59.370Z,409.0000
2019-05-11T00:07:08.359Z,413.0000
2019-05-11T00:07:17.420Z,411.0000
2019-05-11T00:07:29.450Z,420.0000
2019-05-11T00:07:37.381Z,422.0000
2019-05-11T00:07:49.287Z,408.0000
2019-05-11T00:07:57.900Z,406.0000
2019-05-11T00:08:08.351Z,415.0000
2019-05-11T00:08:20.371Z,417.0000
2019-05-11T00:08:27.361Z,400.0000
2019-05-11T00:08:38.369Z,417.0000
2019-05-11T00:08:47.390Z,403.0000
2019-05-11T00:08:58.392Z,408.0000
2019-05-11T00:09:07.385Z,406.0000
2019-05-11T00:09:18.383Z,400.0000
2019-05-11T00:09:27.397Z,400.0000
2019-05-11T00:09:38.392Z,405.0000
2019-05-11T00:09:57.675Z,405.0000
2019-05-11T00:09:58.559Z,418.0000
2019-05-11T00:10:07.376Z,411.0000
2019-05-11T00:10:18.391Z,411.0000
2019-05-11T00:10:27.360Z,410.0000
2019-05-11T00:10:38.386Z,401.0000
2019-05-11T00:10:48.359Z,400.0000
2019-05-11T00:10:58.385Z,400.0000
2019-05-11T00:11:07.355Z,400.0000
2019-05-11T00:11:18.380Z,400.0000
2019-05-11T00:11:27.397Z,400.0000
2019-05-11T00:11:37.281Z,405.0000
2019-05-11T00:11:47.377Z,400.0000
2019-05-11T00:11:58.362Z,400.0000
2019-05-11T00:12:10.271Z,400.0000
2019-05-11T00:12:18.383Z,400.0000
2019-05-11T00:12:29.380Z,400.0000
2019-05-11T00:12:37.363Z,400.0000
2019-05-11T00:12:50.281Z,400.0000
2019-05-11T00:12:57.378Z,400.0000
2019-05-11T00:13:08.906Z,400.0000
2019-05-11T00:13:18.930Z,406.0000
2019-05-11T00:13:28.366Z,400.0000
2019-05-11T00:13:37.372Z,400.0000
2019-05-11T00:13:48.363Z,400.0000
2019-05-11T00:13:57.346Z,400.0000
2019-05-11T00:14:08.366Z,400.0000
2019-05-11T00:14:17.382Z,400.0000
2019-05-11T00:14:28.366Z,400.0000
2019-05-11T00:14:37.364Z,408.0000
2019-05-11T00:14:48.360Z,400.0000
2019-05-11T00:15:01.894Z,400.0000
2019-05-11T00:15:08.366Z,400.0000
2019-05-11T00:15:17.374Z,411.0000
2019-05-11T00:15:28.362Z,400.0000
2019-05-11T00:15:37.373Z,404.0000
2019-05-11T00:15:47.495Z,408.0000
2019-05-11T00:15:58.670Z,408.0000
2019-05-11T00:16:09.381Z,415.0000
2019-05-11T00:16:19.174Z,407.0000
2019-05-11T00:16:29.183Z,407.0000
2019-05-11T00:16:40.510Z,400.0000
2019-05-11T00:16:48.366Z,400.0000
2019-05-11T00:17:00.392Z,403.0000
2019-05-11T00:17:07.389Z,400.0000
2019-05-11T00:17:19.363Z,415.0000
2019-05-11T00:17:27.371Z,422.0000
2019-05-11T00:17:38.393Z,410.0000
2019-05-11T00:17:47.381Z,408.0000
2019-05-11T00:17:58.370Z,402.0000
2019-05-11T00:18:07.412Z,400.0000
2019-05-11T00:18:18.374Z,408.0000
2019-05-11T00:18:27.371Z,407.0000
2019-05-11T00:18:42.927Z,401.0000
2019-05-11T00:18:52.904Z,400.0000
2019-05-11T00:18:58.372Z,400.0000
2019-05-11T00:19:09.417Z,400.0000
2019-05-11T00:19:18.375Z,400.0000
2019-05-11T00:19:27.375Z,400.0000
2019-05-11T00:19:37.371Z,400.0000
2019-05-11T00:19:47.368Z,400.0000
2019-05-11T00:19:58.374Z,400.0000
2019-05-11T00:20:08.458Z,403.0000
2019-05-11T00:20:23.024Z,402.0000
2019-05-11T00:20:27.362Z,400.0000
2019-05-11T00:20:38.370Z,400.0000
2019-05-11T00:20:50.480Z,404.0000
2019-05-11T00:20:59.188Z,400.0000
2019-05-11T00:21:10.437Z,400.0000
2019-05-11T00:21:17.404Z,400.0000
2019-05-11T00:21:30.287Z,400.0000
2019-05-11T00:21:39.916Z,404.0000
2019-05-11T00:21:48.378Z,400.0000
2019-05-11T00:21:57.391Z,400.0000
2019-05-11T00:22:08.437Z,400.0000
2019-05-11T00:22:17.362Z,400.0000
2019-05-11T00:22:28.363Z,400.0000
2019-05-11T00:22:37.384Z,400.0000
2019-05-11T00:22:48.362Z,400.0000
2019-05-11T00:22:57.358Z,400.0000
2019-05-11T00:23:08.380Z,400.0000
2019-05-11T00:23:17.382Z,400.0000
2019-05-11T00:23:28.390Z,400.0000
2019-05-11T00:23:37.388Z,400.0000
2019-05-11T00:23:48.357Z,400.0000
2019-05-11T00:23:57.354Z,407.0000
2019-05-11T00:24:08.384Z,420.0000
2019-05-11T00:24:18.435Z,402.0000
2019-05-11T00:24:29.476Z,401.0000
2019-05-11T00:24:38.313Z,409.0000
2019-05-11T00:24:48.377Z,400.0000
2019-05-11T00:24:59.395Z,401.0000
2019-05-11T00:25:07.381Z,400.0000
2019-05-11T00:25:19.373Z,400.0000
2019-05-11T00:25:27.368Z,400.0000
2019-05-11T00:25:38.383Z,400.0000
2019-05-11T00:25:47.381Z,411.0000
2019-05-11T00:25:58.363Z,402.0000
2019-05-11T00:26:07.361Z,400.0000
2019-05-11T00:26:18.385Z,400.0000
2019-05-11T00:26:27.383Z,403.0000
2019-05-11T00:26:38.019Z,404.0000
2019-05-11T00:26:47.379Z,405.0000
2019-05-11T00:26:58.368Z,413.0000
2019-05-11T00:27:07.445Z,406.0000
2019-05-11T00:27:18.386Z,405.0000
2019-05-11T00:27:27.367Z,408.0000
2019-05-11T00:27:37.371Z,401.0000
2019-05-11T00:27:47.375Z,400.0000
2019-05-11T00:27:58.377Z,400.0000
2019-05-11T00:28:08.436Z,401.0000
2019-05-11T00:28:17.582Z,400.0000
2019-05-11T00:28:28.233Z,405.0000
2019-05-11T00:28:38.375Z,400.0000
2019-05-11T00:28:49.375Z,400.0000
2019-05-11T00:28:58.374Z,400.0000
2019-05-11T00:29:07.976Z,406.0000
2019-05-11T00:29:17.380Z,400.0000
2019-05-11T00:29:29.389Z,417.0000
2019-05-11T00:29:37.868Z,418.0000
2019-05-11T00:29:48.371Z,404.0000
2019-05-11T00:29:57.392Z,408.0000
2019-05-11T00:30:08.358Z,408.0000
2019-05-11T00:30:17.368Z,413.0000
2019-05-11T00:30:28.381Z,408.0000
2019-05-11T00:30:37.375Z,406.0000
2019-05-11T00:30:48.377Z,408.0000
2019-05-11T00:30:57.377Z,410.0000
2019-05-11T00:31:08.372Z,408.0000
2019-05-11T00:31:17.371Z,415.0000
2019-05-11T00:31:27.923Z,407.0000
2019-05-11T00:31:37.380Z,415.0000
2019-05-11T00:31:48.399Z,400.0000
2019-05-11T00:31:58.478Z,435.0000
2019-05-11T00:32:07.580Z,410.0000
2019-05-11T00:32:17.355Z,408.0000
2019-05-11T00:32:28.377Z,400.0000
2019-05-11T00:32:39.398Z,415.0000
2019-05-11T00:32:48.398Z,415.0000
2019-05-11T00:33:02.858Z,403.0000
2019-05-11T00:33:07.379Z,409.0000
2019-05-11T00:33:19.344Z,410.0000
2019-05-11T00:33:27.415Z,400.0000
2019-05-11T00:33:38.392Z,400.0000
2019-05-11T00:33:47.375Z,400.0000
2019-05-11T00:33:58.393Z,400.0000
2019-05-11T00:34:11.898Z,404.0000
2019-05-11T00:34:18.368Z,406.0000
2019-05-11T00:34:27.370Z,400.0000
2019-05-11T00:34:38.390Z,404.0000
2019-05-11T00:34:47.364Z,410.0000
2019-05-11T00:34:58.401Z,419.0000
2019-05-11T00:35:08.365Z,406.0000
2019-05-11T00:35:18.376Z,404.0000
2019-05-11T00:35:27.356Z,410.0000
2019-05-11T00:35:38.381Z,423.0000
2019-05-11T00:35:47.383Z,405.0000
2019-05-11T00:35:58.379Z,404.0000
2019-05-11T00:36:08.408Z,404.0000
2019-05-11T00:36:18.373Z,410.0000
2019-05-11T00:36:28.346Z,404.0000
2019-05-11T00:36:38.363Z,400.0000
2019-05-11T00:36:50.209Z,410.0000
2019-05-11T00:36:59.381Z,400.0000
2019-05-11T00:37:09.361Z,406.0000
2019-05-11T00:37:17.371Z,415.0000
2019-05-11T00:37:28.362Z,415.0000
2019-05-11T00:37:37.360Z,407.0000
2019-05-11T00:37:48.383Z,403.0000
2019-05-11T00:37:57.379Z,401.0000
2019-05-11T00:38:08.374Z,400.0000
2019-05-11T00:38:17.387Z,400.0000
2019-05-11T00:38:28.373Z,400.0000
2019-05-11T00:38:37.641Z,410.0000
2019-05-11T00:38:48.385Z,402.0000
2019-05-11T00:38:57.373Z,403.0000
2019-05-11T00:39:08.377Z,404.0000
2019-05-11T00:39:17.374Z,402.0000
2019-05-11T00:39:28.384Z,400.0000
2019-05-11T00:39:37.354Z,400.0000
2019-05-11T00:39:47.868Z,400.0000
2019-05-11T00:40:13.325Z,400.0000
2019-05-11T00:40:14.463Z,401.0000
2019-05-11T00:40:17.365Z,400.0000
2019-05-11T00:40:28.354Z,400.0000
2019-05-11T00:40:37.378Z,400.0000
2019-05-11T00:40:48.364Z,400.0000
2019-05-11T00:40:59.360Z,400.0000
2019-05-11T00:41:08.382Z,400.0000
2019-05-11T00:41:20.233Z,400.0000
2019-05-11T00:41:27.389Z,400.0000
2019-05-11T00:41:38.390Z,400.0000
2019-05-11T00:41:47.384Z,400.0000
2019-05-11T00:41:58.358Z,400.0000
2019-05-11T00:42:07.359Z,400.0000
2019-05-11T00:42:18.359Z,400.0000
2019-05-11T00:42:27.375Z,400.0000
2019-05-11T00:42:38.386Z,400.0000
2019-05-11T00:42:47.401Z,400.0000
2019-05-11T00:42:58.375Z,400.0000
2019-05-11T00:43:07.381Z,400.0000
2019-05-11T00:43:18.376Z,400.0000
2019-05-11T00:43:31.945Z,400.0000
2019-05-11T00:43:38.366Z,400.0000
2019-05-11T00:43:47.371Z,400.0000
2019-05-11T00:43:58.375Z,400.0000
2019-05-11T00:44:09.358Z,400.0000
2019-05-11T00:44:18.380Z,400.0000
2019-05-11T00:44:28.322Z,400.0000
2019-05-11T00:44:38.356Z,400.0000
2019-05-11T00:44:47.495Z,400.0000
2019-05-11T00:44:59.301Z,400.0000
2019-05-11T00:45:09.372Z,400.0000
2019-05-11T00:45:18.409Z,400.0000
2019-05-11T00:45:30.290Z,400.0000
2019-05-11T00:45:37.387Z,400.0000
2019-05-11T00:45:49.380Z,400.0000
2019-05-11T00:45:57.455Z,400.0000
2019-05-11T00:46:08.370Z,400.0000
2019-05-11T00:46:17.393Z,400.0000
2019-05-11T00:46:28.383Z,400.0000
2019-05-11T00:46:37.422Z,400.0000
2019-05-11T00:46:48.384Z,400.0000
2019-05-11T00:46:57.406Z,400.0000
2019-05-11T00:47:08.371Z,400.0000
2019-05-11T00:47:17.383Z,400.0000
2019-05-11T00:47:32.901Z,400.0000
2019-05-11T00:47:37.373Z,400.0000
2019-05-11T00:47:48.371Z,400.0000
2019-05-11T00:47:57.368Z,400.0000
2019-05-11T00:48:08.429Z,400.0000
2019-05-11T00:48:18.804Z,400.0000
2019-05-11T00:48:27.339Z,400.0000
2019-05-11T00:48:37.430Z,400.0000
2019-05-11T00:48:48.374Z,400.0000
2019-05-11T00:48:58.308Z,400.0000
2019-05-11T00:49:09.599Z,408.0000
2019-05-11T00:49:20.391Z,404.0000
2019-05-11T00:49:28.358Z,406.0000
2019-05-11T00:49:39.412Z,400.0000
2019-05-11T00:49:47.353Z,406.0000
2019-05-11T00:49:59.393Z,404.0000
2019-05-11T00:50:07.375Z,405.0000
2019-05-11T00:50:18.386Z,406.0000
2019-05-11T00:50:39.509Z,417.0000
2019-05-11T00:50:40.194Z,415.0000
2019-05-11T00:50:47.361Z,400.0000
2019-05-11T00:50:58.372Z,400.0000
2019-05-11T00:51:07.376Z,407.0000
2019-05-11T00:51:18.360Z,406.0000
2019-05-11T00:51:27.363Z,400.0000
2019-05-11T00:51:38.366Z,402.0000
2019-05-11T00:51:47.410Z,410.0000
2019-05-11T00:51:58.356Z,413.0000
2019-05-11T00:52:07.366Z,401.0000
2019-05-11T00:52:18.369Z,400.0000
2019-05-11T00:52:27.399Z,401.0000
2019-05-11T00:52:37.796Z,404.0000
2019-05-11T00:52:47.384Z,412.0000
2019-05-11T00:52:57.297Z,410.0000
2019-05-11T00:53:07.369Z,409.0000
2019-05-11T00:53:18.365Z,414.0000
2019-05-11T00:53:27.383Z,410.0000
2019-05-11T00:53:38.413Z,412.0000
2019-05-11T00:53:48.475Z,406.0000
2019-05-11T00:53:59.290Z,417.0000
2019-05-11T00:54:09.377Z,404.0000
2019-05-11T00:54:18.387Z,400.0000
2019-05-11T00:54:30.293Z,404.0000
2019-05-11T00:54:37.376Z,419.0000
2019-05-11T00:54:49.348Z,405.0000
2019-05-11T00:54:57.354Z,422.0000
2019-05-11T00:55:08.388Z,422.0000
2019-05-11T00:55:17.367Z,417.0000
2019-05-11T00:55:28.371Z,415.0000
2019-05-11T00:55:37.388Z,421.0000
2019-05-11T00:55:48.380Z,431.0000
2019-05-11T00:55:57.381Z,418.0000
2019-05-11T00:56:08.364Z,422.0000
2019-05-11T00:56:17.390Z,418.0000
2019-05-11T00:56:28.370Z,415.0000
2019-05-11T00:56:37.386Z,422.0000
2019-05-11T00:56:48.385Z,415.0000
2019-05-11T00:56:57.356Z,413.0000
2019-05-11T00:57:08.378Z,415.0000
2019-05-11T00:57:17.384Z,415.0000
2019-05-11T00:57:28.395Z,412.0000
2019-05-11T00:57:37.015Z,420.0000
2019-05-11T00:57:48.363Z,423.0000
2019-05-11T00:57:57.377Z,427.0000
2019-05-11T00:58:08.375Z,431.0000
2019-05-11T00:58:18.317Z,426.0000
2019-05-11T00:58:28.375Z,416.0000
2019-05-11T00:58:39.364Z,413.0000
2019-05-11T00:58:50.954Z,436.0000
2019-05-11T00:59:00.416Z,410.0000
2019-05-11T00:59:20.884Z,412.0000
2019-05-11T00:59:21.748Z,413.0000
2019-05-11T00:59:27.375Z,409.0000
2019-05-11T00:59:38.355Z,408.0000
2019-05-11T00:59:47.359Z,411.0000
2019-05-11T00:59:58.373Z,414.0000
2019-05-11T01:00:07.385Z,406.0000
2019-05-11T01:00:18.364Z,410.0000
2019-05-11T01:00:27.374Z,406.0000
2019-05-11T01:00:38.380Z,400.0000
2019-05-11T01:00:47.376Z,403.0000
2019-05-11T01:00:58.389Z,408.0000
2019-05-11T01:01:07.358Z,400.0000
2019-05-11T01:01:18.368Z,409.0000
2019-05-11T01:01:27.367Z,407.0000
2019-05-11T01:01:37.784Z,404.0000
2019-05-11T01:01:47.396Z,407.0000
2019-05-11T01:01:57.332Z,417.0000
2019-05-11T01:02:07.374Z,411.0000
2019-05-11T01:02:17.578Z,417.0000
2019-05-11T01:02:27.364Z,408.0000
2019-05-11T01:02:38.374Z,400.0000
2019-05-11T01:02:49.358Z,400.0000
2019-05-11T01:02:58.364Z,401.0000
2019-05-11T01:03:09.371Z,405.0000
2019-05-11T01:03:17.354Z,404.0000
2019-05-11T01:03:28.384Z,410.0000
2019-05-11T01:03:37.361Z,401.0000
2019-05-11T01:03:48.380Z,404.0000
2019-05-11T01:03:57.376Z,411.0000
2019-05-11T01:04:08.386Z,403.0000
2019-05-11T01:04:17.415Z,404.0000
2019-05-11T01:04:28.393Z,400.0000
2019-05-11T01:04:37.402Z,400.0000
2019-05-11T01:04:48.387Z,400.0000
2019-05-11T01:04:57.385Z,400.0000
2019-05-11T01:05:08.433Z,400.0000
2019-05-11T01:05:17.368Z,408.0000
2019-05-11T01:05:28.356Z,406.0000
2019-05-11T01:05:37.393Z,400.0000
2019-05-11T01:05:48.380Z,400.0000
2019-05-11T01:05:57.368Z,400.0000
2019-05-11T01:06:08.375Z,400.0000
2019-05-11T01:06:19.383Z,411.0000
2019-05-11T01:06:28.382Z,400.0000
2019-05-11T01:06:40.245Z,400.0000
2019-05-11T01:06:47.392Z,400.0000
2019-05-11T01:06:58.401Z,400.0000
2019-05-11T01:07:07.381Z,400.0000
2019-05-11T01:07:18.394Z,400.0000
2019-05-11T01:07:27.386Z,400.0000
2019-05-11T01:07:38.379Z,400.0000
2019-05-11T01:07:47.364Z,400.0000
2019-05-11T01:07:58.372Z,400.0000
2019-05-11T01:08:07.389Z,400.0000
2019-05-11T01:08:18.028Z,400.0000
2019-05-11T01:08:27.372Z,400.0000
2019-05-11T01:08:38.370Z,400.0000
2019-05-11T01:08:47.369Z,400.0000
2019-05-11T01:08:58.508Z,400.0000
2019-05-11T01:09:07.393Z,400.0000
2019-05-11T01:09:18.382Z,400.0000
2019-05-11T01:09:27.381Z,400.0000
2019-05-11T01:09:37.389Z,400.0000
2019-05-11T01:09:49.371Z,400.0000
2019-05-11T01:09:57.256Z,400.0000
2019-05-11T01:10:21.745Z,400.0000
2019-05-11T01:10:25.674Z,400.0000
2019-05-11T01:10:41.133Z,400.0000
2019-05-11T01:10:42.693Z,400.0000
2019-05-11T01:10:47.367Z,400.0000
2019-05-11T01:10:58.363Z,400.0000
2019-05-11T01:11:09.360Z,400.0000
2019-05-11T01:11:18.373Z,400.0000
2019-05-11T01:11:29.356Z,400.0000
2019-05-11T01:11:39.258Z,400.0000
2019-05-11T01:11:49.376Z,400.0000
2019-05-11T01:11:57.386Z,400.0000
2019-05-11T01:12:10.916Z,400.0000
2019-05-11T01:12:17.368Z,400.0000
2019-05-11T01:12:28.359Z,400.0000
2019-05-11T01:12:37.371Z,400.0000
2019-05-11T01:12:48.390Z,400.0000
2019-05-11T01:13:01.867Z,400.0000
2019-05-11T01:13:08.383Z,400.0000
2019-05-11T01:13:17.391Z,400.0000
2019-05-11T01:13:28.373Z,400.0000
2019-05-11T01:13:37.380Z,400.0000
2019-05-11T01:13:48.361Z,400.0000
2019-05-11T01:13:57.377Z,400.0000
2019-05-11T01:14:08.361Z,400.0000
2019-05-11T01:14:17.940Z,400.0000
2019-05-11T01:14:28.376Z,400.0000
2019-05-11T01:14:37.371Z,400.0000
2019-05-11T01:14:48.421Z,400.0000
2019-05-11T01:14:58.934Z,400.0000
2019-05-11T01:15:08.395Z,400.0000
2019-05-11T01:15:18.268Z,400.0000
2019-05-11T01:15:27.590Z,400.0000
2019-05-11T01:15:37.440Z,400.0000
2019-05-11T01:15:48.369Z,400.0000
2019-05-11T01:16:00.397Z,410.0000
2019-05-11T01:16:08.408Z,400.0000
2019-05-11T01:16:19.368Z,400.0000
2019-05-11T01:16:27.379Z,403.0000
2019-05-11T01:16:39.367Z,409.0000
2019-05-11T01:16:47.392Z,400.0000
2019-05-11T01:16:58.360Z,400.0000
2019-05-11T01:17:07.366Z,409.0000
2019-05-11T01:17:18.380Z,407.0000
2019-05-11T01:17:27.384Z,404.0000
2019-05-11T01:17:38.385Z,400.0000
2019-05-11T01:17:47.395Z,406.0000
2019-05-11T01:17:58.378Z,400.0000
2019-05-11T01:18:07.368Z,400.0000
2019-05-11T01:18:18.379Z,402.0000
2019-05-11T01:18:27.413Z,406.0000
2019-05-11T01:18:38.378Z,422.0000
2019-05-11T01:18:47.378Z,409.0000
2019-05-11T01:18:58.368Z,412.0000
2019-05-11T01:19:07.380Z,404.0000
2019-05-11T01:19:18.362Z,408.0000
2019-05-11T01:19:29.387Z,420.0000
2019-05-11T01:19:38.356Z,414.0000
2019-05-11T01:19:48.391Z,400.0000
2019-05-11T01:19:57.578Z,410.0000
2019-05-11T01:20:07.382Z,400.0000
2019-05-11T01:20:19.440Z,405.0000
2019-05-11T01:20:29.360Z,406.0000
2019-05-11T01:20:38.355Z,413.0000
2019-05-11T01:20:50.417Z,402.0000
2019-05-11T01:20:59.912Z,408.0000
2019-05-11T01:21:09.375Z,416.0000
2019-05-11T01:21:17.381Z,409.0000
2019-05-11T01:21:28.360Z,400.0000
2019-05-11T01:21:37.354Z,422.0000
2019-05-11T01:21:48.375Z,412.0000
2019-05-11T01:21:57.387Z,414.0000
2019-05-11T01:22:08.379Z,400.0000
2019-05-11T01:22:17.376Z,408.0000
2019-05-11T01:22:28.375Z,406.0000
2019-05-11T01:22:37.379Z,419.0000
2019-05-11T01:22:48.448Z,410.0000
2019-05-11T01:22:57.371Z,401.0000
2019-05-11T01:23:08.362Z,413.0000
2019-05-11T01:23:17.378Z,409.0000
2019-05-11T01:23:27.809Z,415.0000
2019-05-11T01:23:37.378Z,408.0000
2019-05-11T01:23:48.387Z,407.0000
2019-05-11T01:23:58.814Z,412.0000
2019-05-11T01:24:08.395Z,416.0000
2019-05-11T01:24:18.308Z,420.0000
2019-05-11T01:24:27.596Z,410.0000
2019-05-11T01:24:37.380Z,422.0000
2019-05-11T01:24:49.322Z,419.0000
2019-05-11T01:24:57.369Z,432.0000
2019-05-11T01:25:08.406Z,435.0000
2019-05-11T01:25:20.336Z,417.0000
2019-05-11T01:25:28.375Z,420.0000
2019-05-11T01:25:39.366Z,429.0000
2019-05-11T01:25:47.378Z,422.0000
2019-05-11T01:25:59.364Z,417.0000
2019-05-11T01:26:07.378Z,429.0000
2019-05-11T01:26:18.390Z,426.0000
2019-05-11T01:26:31.937Z,428.0000
2019-05-11T01:26:38.362Z,433.0000
2019-05-11T01:26:47.378Z,433.0000
2019-05-11T01:26:58.374Z,421.0000
2019-05-11T01:27:07.368Z,439.0000
2019-05-11T01:27:18.361Z,430.0000
2019-05-11T01:27:27.390Z,424.0000
2019-05-11T01:27:38.382Z,431.0000
2019-05-11T01:27:47.368Z,436.0000
2019-05-11T01:27:58.383Z,417.0000
2019-05-11T01:28:07.371Z,435.0000
2019-05-11T01:28:18.387Z,426.0000
2019-05-11T01:28:27.378Z,428.0000
2019-05-11T01:28:37.803Z,435.0000
2019-05-11T01:28:47.365Z,419.0000
2019-05-11T01:28:58.393Z,433.0000
2019-05-11T01:29:07.379Z,441.0000
2019-05-11T01:29:18.355Z,431.0000
2019-05-11T01:29:27.359Z,440.0000
2019-05-11T01:29:38.404Z,435.0000
2019-05-11T01:29:47.371Z,427.0000
2019-05-11T01:29:59.403Z,422.0000
2019-05-11T01:30:09.384Z,429.0000
2019-05-11T01:30:17.375Z,431.0000
2019-05-11T01:30:29.385Z,455.0000
2019-05-11T01:30:38.867Z,440.0000
2019-05-11T01:30:48.363Z,441.0000
2019-05-11T01:30:57.377Z,438.0000
2019-05-11T01:31:11.158Z,436.0000
2019-05-11T01:31:17.377Z,442.0000
2019-05-11T01:31:32.891Z,440.0000
2019-05-11T01:31:37.394Z,438.0000
2019-05-11T01:31:48.371Z,451.0000
2019-05-11T01:31:57.377Z,451.0000
2019-05-11T01:32:07.967Z,449.0000
2019-05-11T01:32:17.369Z,446.0000
2019-05-11T01:32:28.378Z,451.0000
2019-05-11T01:32:37.393Z,442.0000
2019-05-11T01:32:48.402Z,444.0000
2019-05-11T01:32:57.367Z,445.0000
2019-05-11T01:33:07.272Z,443.0000
2019-05-11T01:33:17.372Z,450.0000
2019-05-11T01:33:28.381Z,451.0000
2019-05-11T01:33:39.319Z,445.0000
2019-05-11T01:33:48.422Z,450.0000
2019-05-11T01:33:57.383Z,432.0000
2019-05-11T01:34:09.342Z,426.0000
2019-05-11T01:34:22.926Z,434.0000
2019-05-11T01:34:28.397Z,442.0000
2019-05-11T01:34:40.227Z,440.0000
2019-05-11T01:34:47.399Z,432.0000
2019-05-11T01:34:59.389Z,426.0000
2019-05-11T01:35:07.359Z,431.0000
2019-05-11T01:35:18.406Z,424.0000
2019-05-11T01:35:30.283Z,425.0000
2019-05-11T01:35:38.418Z,436.0000
2019-05-11T01:35:50.886Z,433.0000
2019-05-11T01:35:58.404Z,432.0000
2019-05-11T01:36:07.367Z,438.0000
2019-05-11T01:36:18.386Z,438.0000
2019-05-11T01:36:27.362Z,441.0000
2019-05-11T01:36:38.382Z,426.0000
2019-05-11T01:36:47.363Z,433.0000
2019-05-11T01:36:58.390Z,435.0000
2019-05-11T01:37:09.377Z,449.0000
2019-05-11T01:37:18.356Z,439.0000
2019-05-11T01:37:27.363Z,426.0000
2019-05-11T01:37:37.272Z,437.0000
2019-05-11T01:37:47.391Z,448.0000
2019-05-11T01:37:58.368Z,435.0000
2019-05-11T01:38:08.938Z,429.0000
2019-05-11T01:38:17.604Z,429.0000
2019-05-11T01:38:27.359Z,428.0000
2019-05-11T01:38:39.397Z,429.0000
2019-05-11T01:38:49.366Z,420.0000
2019-05-11T01:38:58.370Z,424.0000
2019-05-11T01:39:10.390Z,425.0000
2019-05-11T01:39:19.961Z,425.0000
2019-05-11T01:39:29.381Z,436.0000
2019-05-11T01:39:38.887Z,424.0000
2019-05-11T01:39:48.385Z,424.0000
2019-05-11T01:39:57.385Z,426.0000
2019-05-11T01:40:11.006Z,435.0000
2019-05-11T01:40:17.409Z,429.0000
2019-05-11T01:40:28.378Z,432.0000
2019-05-11T01:40:37.370Z,420.0000
2019-05-11T01:40:58.155Z,415.0000
2019-05-11T01:40:59.023Z,426.0000
2019-05-11T01:41:08.370Z,431.0000
2019-05-11T01:41:17.389Z,424.0000
2019-05-11T01:41:28.376Z,417.0000
2019-05-11T01:41:37.361Z,431.0000
2019-05-11T01:41:48.387Z,426.0000
2019-05-11T01:41:57.388Z,423.0000
2019-05-11T01:42:08.385Z,430.0000
2019-05-11T01:42:17.378Z,422.0000
2019-05-11T01:42:28.368Z,420.0000
2019-05-11T01:42:37.395Z,415.0000
2019-05-11T01:42:52.933Z,413.0000
2019-05-11T01:42:57.370Z,420.0000
2019-05-11T01:43:07.344Z,415.0000
2019-05-11T01:43:18.377Z,424.0000
2019-05-11T01:43:28.386Z,419.0000
2019-05-11T01:43:40.357Z,426.0000
2019-05-11T01:43:48.899Z,412.0000
2019-05-11T01:44:00.906Z,408.0000
2019-05-11T01:44:07.383Z,410.0000
2019-05-11T01:44:18.376Z,401.0000
2019-05-11T01:44:27.372Z,413.0000
2019-05-11T01:44:38.372Z,412.0000
2019-05-11T01:44:47.359Z,408.0000
2019-05-11T01:44:58.382Z,420.0000
2019-05-11T01:45:11.899Z,400.0000
2019-05-11T01:45:18.380Z,410.0000
2019-05-11T01:45:27.384Z,409.0000
2019-05-11T01:45:38.386Z,416.0000
2019-05-11T01:45:47.384Z,410.0000
2019-05-11T01:45:58.386Z,409.0000
2019-05-11T01:46:07.371Z,413.0000
2019-05-11T01:46:18.354Z,406.0000
2019-05-11T01:46:27.358Z,400.0000
2019-05-11T01:46:38.376Z,419.0000
2019-05-11T01:46:47.421Z,429.0000
2019-05-11T01:46:58.372Z,431.0000
2019-05-11T01:47:10.200Z,422.0000
2019-05-11T01:47:18.367Z,414.0000
2019-05-11T01:47:29.538Z,417.0000
2019-05-11T01:47:37.382Z,418.0000
2019-05-11T01:47:50.320Z,420.0000
2019-05-11T01:47:57.361Z,417.0000
2019-05-11T01:48:07.876Z,436.0000
2019-05-11T01:48:17.372Z,421.0000
2019-05-11T01:48:28.384Z,431.0000
2019-05-11T01:48:37.367Z,424.0000
2019-05-11T01:48:48.399Z,433.0000
2019-05-11T01:48:57.372Z,426.0000
2019-05-11T01:49:08.005Z,413.0000
2019-05-11T01:49:17.372Z,424.0000
2019-05-11T01:49:28.386Z,424.0000
2019-05-11T01:49:37.405Z,429.0000
2019-05-11T01:49:48.386Z,410.0000
2019-05-11T01:49:57.908Z,406.0000
2019-05-11T01:50:08.370Z,410.0000
2019-05-11T01:50:18.880Z,400.0000
2019-05-11T01:50:28.377Z,400.0000
2019-05-11T01:50:37.385Z,400.0000
2019-05-11T01:50:49.361Z,400.0000
2019-05-11T01:50:59.379Z,400.0000
2019-05-11T01:51:08.370Z,400.0000
2019-05-11T01:51:20.313Z,406.0000
2019-05-11T01:51:27.364Z,400.0000
2019-05-11T01:51:38.374Z,400.0000
2019-05-11T01:51:47.379Z,400.0000
2019-05-11T01:51:58.386Z,400.0000
2019-05-11T01:52:07.368Z,400.0000
2019-05-11T01:52:18.372Z,400.0000
2019-05-11T01:52:27.364Z,400.0000
2019-05-11T01:52:38.387Z,400.0000
2019-05-11T01:52:47.373Z,404.0000
2019-05-11T01:52:58.365Z,400.0000
2019-05-11T01:53:07.363Z,400.0000
2019-05-11T01:53:18.393Z,400.0000
2019-05-11T01:53:27.380Z,400.0000
2019-05-11T01:53:38.385Z,400.0000
2019-05-11T01:53:48.202Z,400.0000
2019-05-11T01:53:58.400Z,400.0000
2019-05-11T01:54:08.311Z,400.0000
2019-05-11T01:54:17.861Z,401.0000
2019-05-11T01:54:27.395Z,401.0000
2019-05-11T01:54:39.276Z,405.0000
2019-05-11T01:54:47.366Z,400.0000
2019-05-11T01:54:58.374Z,400.0000
2019-05-11T01:55:09.363Z,403.0000
2019-05-11T01:55:18.362Z,404.0000
2019-05-11T01:55:30.433Z,411.0000
2019-05-11T01:55:37.384Z,413.0000
2019-05-11T01:55:50.907Z,406.0000
2019-05-11T01:55:57.408Z,400.0000
2019-05-11T01:56:08.364Z,400.0000
2019-05-11T01:56:17.363Z,400.0000
2019-05-11T01:56:28.384Z,400.0000
2019-05-11T01:56:37.387Z,402.0000
2019-05-11T01:56:48.399Z,402.0000
2019-05-11T01:56:57.374Z,400.0000
2019-05-11T01:57:08.370Z,400.0000
2019-05-11T01:57:17.359Z,403.0000
2019-05-11T01:57:28.389Z,400.0000